createdAt,value
2023-03-07T00:01:34.324Z,1.91
2023-03-07T00:03:46.936Z,1.94
2023-03-07T00:06:08.498Z,1.98
2023-03-07T00:08:21.038Z,2.01
2023-03-07T00:10:33.601Z,2.04
2023-03-07T00:12:46.183Z,2.03
2023-03-07T00:14:58.743Z,2.00
2023-03-07T00:17:11.309Z,2.02
2023-03-07T00:19:23.834Z,2.01
2023-03-07T00:21:36.502Z,2.01
2023-03-07T00:23:52.469Z,2.05
2023-03-07T00:26:08.140Z,2.11
2023-03-07T00:28:20.684Z,2.09
2023-03-07T00:30:33.240Z,1.99
2023-03-07T00:32:45.773Z,1.92
2023-03-07T00:34:59.752Z,1.89
2023-03-07T00:37:12.308Z,1.88
2023-03-07T00:39:24.997Z,1.89
2023-03-07T00:41:37.576Z,1.89
2023-03-07T00:43:50.669Z,1.89
2023-03-07T00:46:04.462Z,1.88
2023-03-07T00:48:18.192Z,1.86
2023-03-07T00:50:30.816Z,1.91
2023-03-07T00:52:43.376Z,1.94
2023-03-07T00:54:55.972Z,1.98
2023-03-07T00:57:08.519Z,1.99
2023-03-07T00:59:21.065Z,1.98
2023-03-07T01:01:33.632Z,1.95
2023-03-07T01:03:49.761Z,1.93
2023-03-07T01:06:08.447Z,1.85
2023-03-07T01:08:22.225Z,1.87
2023-03-07T01:10:34.746Z,1.92
2023-03-07T01:12:47.320Z,1.93
2023-03-07T01:14:59.904Z,1.92
2023-03-07T01:17:12.708Z,1.90
2023-03-07T01:19:25.344Z,1.88
2023-03-07T01:21:40.526Z,1.89
2023-03-07T01:23:53.956Z,1.85
2023-03-07T01:26:06.578Z,1.82
2023-03-07T01:28:19.221Z,1.83
2023-03-07T01:30:31.877Z,1.86
2023-03-07T01:32:44.660Z,1.86
2023-03-07T01:34:57.234Z,1.85
2023-03-07T01:37:09.961Z,1.86
2023-03-07T01:39:23.127Z,1.87
2023-03-07T01:41:37.651Z,1.87
2023-03-07T01:43:50.921Z,1.91
2023-03-07T01:46:18.879Z,1.94
2023-03-07T01:48:31.857Z,1.94
2023-03-07T01:50:44.764Z,1.96
2023-03-07T01:53:00.464Z,1.99
2023-03-07T01:55:18.020Z,1.98
2023-03-07T01:57:34.434Z,1.96
2023-03-07T01:59:50.846Z,1.93
2023-03-07T02:02:09.251Z,1.87
2023-03-07T02:04:33.243Z,1.83
2023-03-07T02:06:45.873Z,1.80
2023-03-07T02:08:59.644Z,1.79
2023-03-07T02:11:12.540Z,1.77
2023-03-07T02:13:25.129Z,1.76
2023-03-07T02:15:38.104Z,1.69
2023-03-07T02:17:51.480Z,1.62
2023-03-07T02:20:48.683Z,1.58
2023-03-07T02:23:02.516Z,1.49
2023-03-07T02:25:42.044Z,1.48
2023-03-07T02:27:56.959Z,1.48
2023-03-07T02:30:10.368Z,1.46
2023-03-07T02:32:23.360Z,1.44
2023-03-07T02:34:36.227Z,1.42
2023-03-07T02:36:53.432Z,1.43
2023-03-07T02:39:09.038Z,1.45
2023-03-07T02:41:26.173Z,1.47
2023-03-07T02:43:38.905Z,1.48
2023-03-07T02:45:51.571Z,1.50
2023-03-07T02:48:04.240Z,1.50
2023-03-07T02:50:17.584Z,1.51
2023-03-07T02:52:30.492Z,1.51
2023-03-07T02:54:43.116Z,1.54
2023-03-07T02:56:56.607Z,1.55
2023-03-07T02:59:09.200Z,1.52
2023-03-07T03:01:21.831Z,1.49
2023-03-07T03:03:34.662Z,1.47
2023-03-07T03:05:47.372Z,1.42
2023-03-07T03:07:59.970Z,1.39
2023-03-07T03:10:12.600Z,1.41
2023-03-07T03:12:25.122Z,1.44
2023-03-07T03:14:37.793Z,1.44
2023-03-07T03:16:52.500Z,1.45
2023-03-07T03:19:05.520Z,1.43
2023-03-07T03:21:18.024Z,1.38
2023-03-07T03:23:30.803Z,1.36
2023-03-07T03:25:43.476Z,1.33
2023-03-07T03:27:56.166Z,1.31
2023-03-07T03:30:12.611Z,1.28
2023-03-07T03:32:25.260Z,1.22
2023-03-07T03:34:37.895Z,1.18
2023-03-07T03:36:51.000Z,1.16
2023-03-07T03:39:03.989Z,1.14
2023-03-07T03:41:16.918Z,1.12
2023-03-07T03:43:29.496Z,1.10
2023-03-07T03:45:42.585Z,1.11
2023-03-07T03:47:55.191Z,1.13
2023-03-07T03:50:08.762Z,1.15
2023-03-07T03:52:23.446Z,1.16
2023-03-07T03:54:36.077Z,1.15
2023-03-07T03:56:48.764Z,1.16
2023-03-07T03:59:01.349Z,1.14
2023-03-07T04:01:14.156Z,1.08
2023-03-07T04:03:26.764Z,1.06
2023-03-07T04:05:39.327Z,1.06
2023-03-07T04:07:52.432Z,1.08
2023-03-07T04:10:05.823Z,1.11
2023-03-07T04:12:18.369Z,1.13
2023-03-07T04:14:30.960Z,1.12
2023-03-07T04:16:43.594Z,1.07
2023-03-07T04:18:56.261Z,1.04
2023-03-07T04:21:10.921Z,1.02
2023-03-07T04:23:24.885Z,1.00
2023-03-07T04:25:37.680Z,1.01
2023-03-07T04:27:50.318Z,1.02
2023-03-07T04:30:03.281Z,1.03
2023-03-07T04:32:15.957Z,1.02
2023-03-07T04:34:28.548Z,1.04
2023-03-07T04:36:42.698Z,1.06
2023-03-07T04:38:55.265Z,1.09
2023-03-07T04:41:11.177Z,1.12
2023-03-07T04:43:23.910Z,1.13
2023-03-07T04:45:37.256Z,1.16
2023-03-07T04:47:49.853Z,1.16
2023-03-07T04:50:02.548Z,1.17
2023-03-07T04:52:15.243Z,1.19
2023-03-07T04:54:27.848Z,1.23
2023-03-07T04:56:40.441Z,1.25
2023-03-07T04:58:53.308Z,1.29
2023-03-07T05:01:06.253Z,1.30
2023-03-07T05:03:18.970Z,1.32
2023-03-07T05:05:31.604Z,1.34
2023-03-07T05:07:44.263Z,1.35
2023-03-07T05:09:56.859Z,1.37
2023-03-07T05:12:09.811Z,1.38
2023-03-07T05:14:22.650Z,1.42
2023-03-07T05:16:35.336Z,1.44
2023-03-07T05:18:47.927Z,1.45
2023-03-07T05:21:00.502Z,1.46
2023-03-07T05:23:13.132Z,1.44
2023-03-07T05:25:25.753Z,1.42
2023-03-07T05:27:38.623Z,1.42
2023-03-07T05:29:51.434Z,1.42
2023-03-07T05:32:04.905Z,1.44
2023-03-07T05:34:17.549Z,1.44
2023-03-07T05:36:30.435Z,1.44
2023-03-07T05:38:43.542Z,1.46
2023-03-07T05:40:56.120Z,1.47
2023-03-07T05:43:08.706Z,1.48
2023-03-07T05:45:21.343Z,1.50
2023-03-07T05:47:33.932Z,1.52
2023-03-07T05:49:46.479Z,1.52
2023-03-07T05:51:59.043Z,1.54
2023-03-07T05:54:11.680Z,1.57
2023-03-07T05:56:24.261Z,1.60
2023-03-07T05:58:36.871Z,1.66
2023-03-07T06:00:49.600Z,1.69
2023-03-07T06:03:03.087Z,1.69
2023-03-07T06:05:15.826Z,1.68
2023-03-07T06:07:28.455Z,1.69
2023-03-07T06:09:41.098Z,1.69
2023-03-07T06:11:53.728Z,1.69
2023-03-07T06:14:06.295Z,1.66
2023-03-07T06:16:19.034Z,1.65
2023-03-07T06:18:31.637Z,1.63
2023-03-07T06:20:44.314Z,1.62
2023-03-07T06:22:56.850Z,1.62
2023-03-07T06:25:09.804Z,1.64
2023-03-07T06:27:22.325Z,1.67
2023-03-07T06:29:34.901Z,1.67
2023-03-07T06:31:47.583Z,1.70
2023-03-07T06:34:00.457Z,1.72
2023-03-07T06:36:14.943Z,1.75
2023-03-07T06:38:28.012Z,1.78
2023-03-07T06:40:40.545Z,1.82
2023-03-07T06:42:53.782Z,1.88
2023-03-07T06:45:06.914Z,1.91
2023-03-07T06:47:19.441Z,1.96
2023-03-07T06:49:31.974Z,2.03
2023-03-07T06:51:44.578Z,2.11
2023-03-07T06:53:57.776Z,2.19
2023-03-07T06:56:10.299Z,2.30
2023-03-07T06:58:22.882Z,2.39
2023-03-07T07:00:35.366Z,2.49
2023-03-07T07:02:48.158Z,2.59
2023-03-07T07:05:01.470Z,2.66
2023-03-07T07:07:14.184Z,2.72
2023-03-07T07:09:26.737Z,2.83
2023-03-07T07:11:39.349Z,2.96
2023-03-07T07:13:51.912Z,3.09
2023-03-07T07:16:06.181Z,3.25
2023-03-07T07:18:18.718Z,3.40
2023-03-07T07:20:31.350Z,3.52
2023-03-07T07:22:43.957Z,3.66
2023-03-07T07:24:56.548Z,3.78
2023-03-07T07:27:11.531Z,3.88
2023-03-07T07:29:25.730Z,4.02
2023-03-07T07:31:38.577Z,4.19
2023-03-07T07:33:51.178Z,4.33
2023-03-07T07:36:04.069Z,4.44
2023-03-07T07:38:16.682Z,4.56
2023-03-07T07:40:29.251Z,4.65
2023-03-07T07:42:43.370Z,4.67
2023-03-07T07:44:55.959Z,4.67
2023-03-07T07:47:08.501Z,4.60
2023-03-07T07:49:21.084Z,4.63
2023-03-07T07:51:33.931Z,4.71
2023-03-07T07:53:46.925Z,4.80
2023-03-07T07:55:59.521Z,4.92
2023-03-07T07:58:12.152Z,5.05
2023-03-07T08:00:25.024Z,5.21
2023-03-07T08:02:38.244Z,5.41
2023-03-07T08:04:50.842Z,5.52
2023-03-07T08:07:03.468Z,5.63
2023-03-07T08:09:16.178Z,5.77
2023-03-07T08:11:28.790Z,5.91
2023-03-07T08:13:41.362Z,6.08
2023-03-07T08:15:54.568Z,6.17
2023-03-07T08:18:07.149Z,6.32
2023-03-07T08:20:23.317Z,6.42
2023-03-07T08:22:39.666Z,6.49
2023-03-07T08:24:52.200Z,6.56
2023-03-07T08:27:05.269Z,6.65
2023-03-07T08:29:17.826Z,6.76
2023-03-07T08:31:30.431Z,6.85
2023-03-07T08:33:43.376Z,6.95
2023-03-07T08:36:00.634Z,7.01
2023-03-07T08:38:13.195Z,7.01
2023-03-07T08:40:27.130Z,7.05
2023-03-07T08:42:39.832Z,7.13
2023-03-07T08:44:52.474Z,7.19
2023-03-07T08:47:05.110Z,7.31
2023-03-07T08:49:17.775Z,7.38
2023-03-07T08:51:30.385Z,7.50
2023-03-07T08:53:44.351Z,7.71
2023-03-07T08:55:56.863Z,7.92
2023-03-07T08:58:10.243Z,8.11
2023-03-07T09:00:22.888Z,8.23
2023-03-07T09:02:36.077Z,8.25
2023-03-07T09:04:48.765Z,8.28
2023-03-07T09:07:01.868Z,8.33
2023-03-07T09:09:14.600Z,8.40
2023-03-07T09:11:27.252Z,8.53
2023-03-07T09:13:51.025Z,8.67
2023-03-07T09:16:06.180Z,8.77
2023-03-07T09:18:18.721Z,8.71
2023-03-07T09:20:31.243Z,8.55
2023-03-07T09:22:43.802Z,8.29
2023-03-07T09:24:56.660Z,8.01
2023-03-07T09:27:11.429Z,7.75
2023-03-07T09:29:24.865Z,7.44
2023-03-07T09:31:37.563Z,7.26
2023-03-07T09:33:50.230Z,7.11
2023-03-07T09:36:07.662Z,6.98
2023-03-07T09:38:20.341Z,6.83
2023-03-07T09:40:33.174Z,6.77
2023-03-07T09:43:16.492Z,6.80
2023-03-07T09:45:51.012Z,6.76
2023-03-07T09:48:24.077Z,6.81
2023-03-07T09:50:53.479Z,6.88
2023-03-07T09:53:06.275Z,6.94
2023-03-07T09:55:21.714Z,7.02
2023-03-07T09:57:40.672Z,7.09
2023-03-07T09:59:56.846Z,7.15
2023-03-07T10:02:32.421Z,7.17
2023-03-07T10:05:13.996Z,7.15
2023-03-07T10:07:27.995Z,7.20
2023-03-07T10:09:40.733Z,7.30
2023-03-07T10:12:09.312Z,7.42
2023-03-07T10:14:46.499Z,7.54
2023-03-07T10:17:24.315Z,7.72
2023-03-07T10:20:11.918Z,7.82
2023-03-07T10:22:38.540Z,7.84
2023-03-07T10:25:18.827Z,7.75
2023-03-07T10:27:32.129Z,7.63
2023-03-07T10:29:50.682Z,7.68
2023-03-07T10:32:32.693Z,7.73
2023-03-07T10:34:45.685Z,7.68
2023-03-07T10:37:09.363Z,7.63
2023-03-07T10:39:28.897Z,7.60
2023-03-07T10:41:41.441Z,7.50
2023-03-07T10:43:56.376Z,7.38
2023-03-07T10:46:26.511Z,7.30
2023-03-07T10:48:43.108Z,7.19
2023-03-07T10:51:07.011Z,7.18
2023-03-07T10:53:26.231Z,7.25
2023-03-07T10:55:43.641Z,7.33
2023-03-07T10:58:13.120Z,7.35
2023-03-07T11:00:26.206Z,7.38
2023-03-07T11:02:44.761Z,7.44
2023-03-07T11:04:58.264Z,7.42
2023-03-07T11:07:34.532Z,7.43
2023-03-07T11:09:47.838Z,7.35
2023-03-07T11:12:06.219Z,7.34
2023-03-07T11:14:19.125Z,7.33
2023-03-07T11:16:31.776Z,7.34
2023-03-07T11:18:45.600Z,7.38
2023-03-07T11:20:59.354Z,7.45
2023-03-07T11:23:31.466Z,7.48
2023-03-07T11:25:44.643Z,7.39
2023-03-07T11:27:59.408Z,7.38
2023-03-07T11:30:19.304Z,7.39
2023-03-07T11:32:33.573Z,7.40
2023-03-07T11:34:59.835Z,7.43
2023-03-07T11:37:38.162Z,7.41
2023-03-07T11:40:18.576Z,7.37
2023-03-07T11:42:37.839Z,7.38
2023-03-07T11:45:00.598Z,7.41
2023-03-07T11:47:24.804Z,7.48
2023-03-07T11:49:46.528Z,7.52
2023-03-07T11:52:32.816Z,7.54
2023-03-07T11:55:07.218Z,7.48
2023-03-07T11:57:53.187Z,7.43
2023-03-07T12:00:32.475Z,7.36
2023-03-07T12:03:10.888Z,7.43
2023-03-07T12:05:43.612Z,7.49
2023-03-07T12:08:15.299Z,7.48
2023-03-07T12:10:43.305Z,7.43
2023-03-07T12:13:33.215Z,7.39
2023-03-07T12:16:00.406Z,7.35
2023-03-07T12:18:38.514Z,7.38
2023-03-07T12:21:13.704Z,7.43
2023-03-07T12:23:38.824Z,7.53
2023-03-07T12:25:57.359Z,7.62
2023-03-07T12:28:44.103Z,7.72
2023-03-07T12:31:12.500Z,7.74
2023-03-07T12:33:53.068Z,7.75
2023-03-07T12:36:16.487Z,7.79
2023-03-07T12:38:47.919Z,7.83
2023-03-07T12:41:24.343Z,7.87
2023-03-07T12:43:43.827Z,7.79
2023-03-07T12:46:18.049Z,7.78
2023-03-07T12:48:42.954Z,7.76
2023-03-07T12:51:26.300Z,7.78
2023-03-07T12:53:49.438Z,7.88
2023-03-07T12:56:17.746Z,7.96
2023-03-07T12:58:47.377Z,8.05
2023-03-07T13:01:04.052Z,8.14
2023-03-07T13:03:29.319Z,8.23
2023-03-07T13:05:44.412Z,8.34
2023-03-07T13:07:57.481Z,8.40
2023-03-07T13:10:19.746Z,8.39
2023-03-07T13:12:35.003Z,8.37
2023-03-07T13:14:53.730Z,8.37
2023-03-07T13:17:12.947Z,8.45
2023-03-07T13:19:31.182Z,8.56
2023-03-07T13:21:43.854Z,8.60
2023-03-07T13:24:35.743Z,8.65
2023-03-07T13:26:55.148Z,8.61
2023-03-07T13:29:08.663Z,8.59
2023-03-07T13:31:22.309Z,8.54
2023-03-07T13:33:34.869Z,8.49
2023-03-07T13:35:58.676Z,8.45
2023-03-07T13:38:14.317Z,8.33
2023-03-07T13:40:34.650Z,8.27
2023-03-07T13:42:48.359Z,8.27
2023-03-07T13:45:01.009Z,8.28
2023-03-07T13:47:43.106Z,8.29
2023-03-07T13:49:55.627Z,8.35
2023-03-07T13:52:36.246Z,8.42
2023-03-07T13:54:50.769Z,8.50
2023-03-07T13:57:04.288Z,8.56
2023-03-07T13:59:24.611Z,8.66
2023-03-07T14:01:44.104Z,8.70
2023-03-07T14:04:41.108Z,8.72
2023-03-07T14:07:01.562Z,8.67
2023-03-07T14:09:28.783Z,8.62
2023-03-07T14:12:04.835Z,8.57
2023-03-07T14:14:49.557Z,8.49
2023-03-07T14:17:08.352Z,8.45
2023-03-07T14:19:38.059Z,8.47
2023-03-07T14:21:57.762Z,8.44
2023-03-07T14:24:34.217Z,8.38
2023-03-07T14:26:53.084Z,8.26
2023-03-07T14:29:52.030Z,8.22
2023-03-07T14:32:21.771Z,8.10
2023-03-07T14:34:36.354Z,8.02
2023-03-07T14:36:54.242Z,8.03
2023-03-07T14:39:14.164Z,8.05
2023-03-07T14:41:56.165Z,8.00
2023-03-07T14:44:36.912Z,7.97
2023-03-07T14:47:22.642Z,7.89
2023-03-07T14:49:44.551Z,7.83
2023-03-07T14:51:58.137Z,7.78
2023-03-07T14:54:17.087Z,7.74
2023-03-07T14:56:32.299Z,7.69
2023-03-07T14:58:51.297Z,7.66
2023-03-07T15:01:11.123Z,7.64
2023-03-07T15:03:23.705Z,7.61
2023-03-07T15:05:47.181Z,7.57
2023-03-07T15:07:59.787Z,7.55
2023-03-07T15:10:22.788Z,7.54
2023-03-07T15:12:35.546Z,7.53
2023-03-07T15:14:57.050Z,7.53
2023-03-07T15:17:18.601Z,7.54
2023-03-07T15:19:39.361Z,7.52
2023-03-07T15:22:01.590Z,7.52
2023-03-07T15:24:29.214Z,7.51
2023-03-07T15:26:49.175Z,7.49
2023-03-07T15:29:09.043Z,7.46
2023-03-07T15:31:22.969Z,7.45
2023-03-07T15:33:35.876Z,7.47
2023-03-07T15:36:13.139Z,7.44
2023-03-07T15:38:26.299Z,7.41
2023-03-07T15:40:38.908Z,7.38
2023-03-07T15:42:54.432Z,7.37
2023-03-07T15:45:29.303Z,7.34
2023-03-07T15:47:41.910Z,7.30
2023-03-07T15:50:00.705Z,7.28
2023-03-07T15:52:39.865Z,7.28
2023-03-07T15:54:55.109Z,7.23
2023-03-07T15:57:22.094Z,7.21
2023-03-07T15:59:41.921Z,7.19
2023-03-07T16:01:54.897Z,7.20
2023-03-07T16:04:38.612Z,7.19
2023-03-07T16:06:51.139Z,7.15
2023-03-07T16:09:05.067Z,7.18
2023-03-07T16:11:19.936Z,7.15
2023-03-07T16:13:39.091Z,7.15
2023-03-07T16:15:59.527Z,7.13
2023-03-07T16:18:21.911Z,7.11
2023-03-07T16:20:34.442Z,7.11
2023-03-07T16:22:47.778Z,7.11
2023-03-07T16:25:00.355Z,7.09
2023-03-07T16:27:17.618Z,7.09
2023-03-07T16:29:30.180Z,7.05
2023-03-07T16:31:43.159Z,7.05
2023-03-07T16:33:56.180Z,7.05
2023-03-07T16:36:10.608Z,7.03
2023-03-07T16:38:23.754Z,7.02
2023-03-07T16:40:42.127Z,6.98
2023-03-07T16:42:56.150Z,6.96
2023-03-07T16:45:15.547Z,6.93
2023-03-07T16:47:28.181Z,6.91
2023-03-07T16:49:40.959Z,6.88
2023-03-07T16:52:05.195Z,6.87
2023-03-07T16:54:18.847Z,6.80
2023-03-07T16:56:44.747Z,6.80
2023-03-07T16:58:58.345Z,6.78
2023-03-07T17:01:14.831Z,6.73
2023-03-07T17:03:29.754Z,6.70
2023-03-07T17:05:42.409Z,6.68
2023-03-07T17:07:56.848Z,6.67
2023-03-07T17:10:10.665Z,6.67
2023-03-07T17:12:23.914Z,6.66
2023-03-07T17:14:36.550Z,6.62
2023-03-07T17:16:50.273Z,6.63
2023-03-07T17:19:02.918Z,6.63
2023-03-07T17:21:18.806Z,6.64
2023-03-07T17:23:31.506Z,6.64
2023-03-07T17:25:44.076Z,6.62
2023-03-07T17:28:03.812Z,6.62
2023-03-07T17:30:22.168Z,6.58
2023-03-07T17:32:34.828Z,6.56
2023-03-07T17:34:47.474Z,6.53
2023-03-07T17:37:00.559Z,6.51
2023-03-07T17:39:14.160Z,6.50
2023-03-07T17:41:26.681Z,6.49
2023-03-07T17:43:39.594Z,6.51
2023-03-07T17:45:52.141Z,6.50
2023-03-07T17:48:04.736Z,6.50
2023-03-07T17:50:19.457Z,6.49
2023-03-07T17:52:32.988Z,6.49
2023-03-07T17:54:45.915Z,6.45
2023-03-07T17:56:58.628Z,6.44
2023-03-07T17:59:12.027Z,6.43
2023-03-07T18:01:24.550Z,6.42
2023-03-07T18:03:38.379Z,6.41
2023-03-07T18:05:51.023Z,6.43
2023-03-07T18:08:04.958Z,6.39
2023-03-07T18:10:17.749Z,6.39
2023-03-07T18:12:30.651Z,6.37
2023-03-07T18:14:43.166Z,6.35
2023-03-07T18:16:55.758Z,6.35
2023-03-07T18:19:14.279Z,6.35
2023-03-07T18:21:30.595Z,6.32
2023-03-07T18:23:43.227Z,6.33
2023-03-07T18:26:03.332Z,6.34
2023-03-07T18:28:16.219Z,6.31
2023-03-07T18:30:29.188Z,6.32
2023-03-07T18:32:41.878Z,6.30
2023-03-07T18:34:54.501Z,6.32
2023-03-07T18:37:08.194Z,6.30
2023-03-07T18:39:22.693Z,6.31
2023-03-07T18:41:35.254Z,6.30
2023-03-07T18:43:47.926Z,6.29
2023-03-07T18:46:02.878Z,6.31
2023-03-07T18:48:15.379Z,6.31
2023-03-07T18:50:27.931Z,6.30
2023-03-07T18:52:40.700Z,6.32
2023-03-07T18:54:53.267Z,6.30
2023-03-07T18:57:05.809Z,6.34
2023-03-07T18:59:18.585Z,6.32
2023-03-07T19:01:33.575Z,6.31
2023-03-07T19:03:48.225Z,6.31
2023-03-07T19:06:02.366Z,6.31
2023-03-07T19:08:16.141Z,6.29
2023-03-07T19:10:28.819Z,6.29
2023-03-07T19:12:41.435Z,6.29
2023-03-07T19:14:54.695Z,6.28
2023-03-07T19:17:07.281Z,6.29
2023-03-07T19:19:19.982Z,6.27
2023-03-07T19:21:32.592Z,6.28
2023-03-07T19:23:46.612Z,6.28
2023-03-07T19:26:07.319Z,6.26
2023-03-07T19:28:20.115Z,6.25
2023-03-07T19:30:35.454Z,6.28
2023-03-07T19:32:48.194Z,6.26
2023-03-07T19:35:00.955Z,6.26
2023-03-07T19:37:13.670Z,6.29
2023-03-07T19:39:26.284Z,6.28
2023-03-07T19:41:40.479Z,6.29
2023-03-07T19:43:54.847Z,6.30
2023-03-07T19:46:09.814Z,6.29
2023-03-07T19:48:23.214Z,6.29
2023-03-07T19:50:40.207Z,6.25
2023-03-07T19:52:52.838Z,6.22
2023-03-07T19:55:06.919Z,6.22
2023-03-07T19:57:19.636Z,6.21
2023-03-07T19:59:32.156Z,6.21
2023-03-07T20:01:45.274Z,6.21
2023-03-07T20:03:58.380Z,6.21
2023-03-07T20:06:15.786Z,6.22
2023-03-07T20:08:33.524Z,6.21
2023-03-07T20:10:46.352Z,6.18
2023-03-07T20:12:59.164Z,6.17
2023-03-07T20:15:13.013Z,6.16
2023-03-07T20:17:26.037Z,6.17
2023-03-07T20:19:39.253Z,6.15
2023-03-07T20:21:51.947Z,6.16
2023-03-07T20:24:04.847Z,6.15
2023-03-07T20:26:23.113Z,6.12
2023-03-07T20:28:36.636Z,6.12
2023-03-07T20:30:49.275Z,6.12
2023-03-07T20:33:02.280Z,6.10
2023-03-07T20:35:14.980Z,6.10
2023-03-07T20:37:27.637Z,6.08
2023-03-07T20:39:40.451Z,6.07
2023-03-07T20:41:53.139Z,6.09
2023-03-07T20:44:07.336Z,6.09
2023-03-07T20:46:22.076Z,6.07
2023-03-07T20:48:35.278Z,6.06
2023-03-07T20:50:47.823Z,6.06
2023-03-07T20:53:00.384Z,5.91
2023-03-07T20:55:13.166Z,5.69
2023-03-07T20:57:25.895Z,5.51
2023-03-07T20:59:38.600Z,5.33
2023-03-07T21:01:51.198Z,5.19
2023-03-07T21:04:08.058Z,5.08
2023-03-07T21:06:21.480Z,4.96
2023-03-07T21:08:36.474Z,4.87
2023-03-07T21:11:00.385Z,4.82
2023-03-07T21:13:13.200Z,4.77
2023-03-07T21:15:25.825Z,4.74
2023-03-07T21:17:38.539Z,4.70
2023-03-07T21:19:51.115Z,4.63
2023-03-07T21:22:04.063Z,4.60
2023-03-07T21:24:16.672Z,4.57
2023-03-07T21:26:31.336Z,4.54
2023-03-07T21:28:44.384Z,4.51
2023-03-07T21:31:02.224Z,4.48
2023-03-07T21:33:14.850Z,4.46
2023-03-07T21:35:27.452Z,4.47
2023-03-07T21:37:40.146Z,4.47
2023-03-07T21:39:52.734Z,4.45
2023-03-07T21:42:05.443Z,4.46
2023-03-07T21:44:18.222Z,4.45
2023-03-07T21:46:31.233Z,4.45
2023-03-07T21:48:43.800Z,4.42
2023-03-07T21:50:56.400Z,4.36
2023-03-07T21:53:09.664Z,4.29
2023-03-07T21:55:24.752Z,4.23
2023-03-07T21:57:37.343Z,4.19
2023-03-07T21:59:49.995Z,4.19
2023-03-07T22:02:02.628Z,4.19
2023-03-07T22:04:15.263Z,4.21
2023-03-07T22:06:28.548Z,4.18
2023-03-07T22:08:41.374Z,4.14
2023-03-07T22:11:00.222Z,4.11
2023-03-07T22:13:12.924Z,4.06
2023-03-07T22:15:25.865Z,4.04
2023-03-07T22:17:38.415Z,4.06
2023-03-07T22:19:51.029Z,4.06
2023-03-07T22:22:03.672Z,4.03
2023-03-07T22:24:16.256Z,4.00
2023-03-07T22:26:30.872Z,3.94
2023-03-07T22:28:43.518Z,3.86
2023-03-07T22:31:00.552Z,3.78
2023-03-07T22:33:13.309Z,3.71
2023-03-07T22:35:26.291Z,3.67
2023-03-07T22:37:38.977Z,3.60
2023-03-07T22:39:51.570Z,3.52
2023-03-07T22:42:04.111Z,3.46
2023-03-07T22:44:19.406Z,3.39
2023-03-07T22:46:31.957Z,3.35
2023-03-07T22:48:44.598Z,3.31
2023-03-07T22:50:57.782Z,3.29
2023-03-07T22:53:10.453Z,3.29
2023-03-07T22:55:23.063Z,3.27
2023-03-07T22:57:35.649Z,3.25
2023-03-07T22:59:48.725Z,3.22
2023-03-07T23:02:01.222Z,3.15
2023-03-07T23:04:13.820Z,3.08
2023-03-07T23:06:29.480Z,3.01
2023-03-07T23:08:46.972Z,2.90
2023-03-07T23:11:05.525Z,2.84
2023-03-07T23:13:18.108Z,2.80
2023-03-07T23:15:31.336Z,2.78
2023-03-07T23:17:44.615Z,2.73
2023-03-07T23:19:57.164Z,2.71
2023-03-07T23:22:09.960Z,2.72
2023-03-07T23:24:22.553Z,2.71
2023-03-07T23:26:37.453Z,2.70
2023-03-07T23:28:50.906Z,2.67
2023-03-07T23:31:04.187Z,2.66
2023-03-07T23:33:16.895Z,2.65
2023-03-07T23:35:32.405Z,2.65
2023-03-07T23:37:47.460Z,2.59
2023-03-07T23:40:00.835Z,2.53
2023-03-07T23:42:13.930Z,2.47
2023-03-07T23:44:26.487Z,2.45
2023-03-07T23:46:39.124Z,2.41
2023-03-07T23:48:52.735Z,2.34
2023-03-07T23:51:05.331Z,2.26
2023-03-07T23:53:17.860Z,2.20
2023-03-07T23:55:30.479Z,2.16
2023-03-07T23:57:43.318Z,2.12
2023-03-07T23:59:56.036Z,2.09
